Time,TemperatureF,DewpointF,PressureIn,WindDirection,WindDirectionDegrees,WindSpeedMPH,WindSpeedGustMPH,Humidity,HourlyPrecipIn,Conditions,Clouds,dailyrainin,SoftwareType,DateUTC
2013-07-27 00:14:00,61.0,52.6,-100.00,ENE,68,0.0,0.0,74,0.00,,,0.00,WSDL version 420,2013-07-27 04:14:00,
2013-07-27 00:16:00,61.0,52.6,-100.00,ENE,68,0.0,0.0,74,0.00,,,0.00,WSDL version 420,2013-07-27 04:16:00,
2013-07-27 00:18:00,60.9,52.6,29.21,ENE,68,0.0,0.0,74,-99.99,,,-99.99,WSDL version 420,2013-07-27 04:18:00,
2013-07-27 00:20:00,60.9,52.6,29.21,ENE,68,0.0,0.0,74,-99.99,,,-99.99,WSDL version 420,2013-07-27 04:20:00,
2013-07-27 00:26:00,60.8,52.5,29.21,ENE,68,0.0,0.0,75,0.00,,,0.00,WSDL version 420,2013-07-27 04:26:00,
2013-07-27 00:32:00,60.5,52.8,29.21,ENE,68,0.0,0.0,76,0.00,,,0.00,WSDL version 420,2013-07-27 04:32:00,
2013-07-27 00:38:00,60.4,52.8,29.21,ENE,68,0.0,0.0,76,0.00,,,0.00,WSDL version 420,2013-07-27 04:38:00,
2013-07-27 00:44:00,60.4,52.7,29.21,ENE,68,0.0,0.0,76,0.00,,,0.00,WSDL version 420,2013-07-27 04:44:00,
2013-07-27 00:49:00,60.3,52.7,29.21,ENE,68,0.0,0.0,76,0.00,,,0.00,WSDL version 420,2013-07-27 04:49:00,
2013-07-27 00:55:00,60.1,52.9,29.21,ENE,68,0.0,0.0,77,0.00,,,0.00,WSDL version 420,2013-07-27 04:55:00,
2013-07-27 01:01:00,60.1,52.9,29.21,ENE,68,0.0,0.0,77,0.00,,,0.00,WSDL version 420,2013-07-27 05:01:00,
2013-07-27 01:07:00,59.9,52.6,29.21,ENE,68,0.0,0.0,76,-99.99,,,-99.99,WSDL version 420,2013-07-27 05:07:00,
2013-07-27 01:13:00,59.9,52.9,29.21,ENE,68,0.0,0.0,78,0.00,,,0.00,WSDL version 420,2013-07-27 05:13:00,
2013-07-27 01:19:00,59.7,52.6,29.21,ENE,68,0.0,0.0,78,0.00,,,0.00,WSDL version 420,2013-07-27 05:19:00,
2013-07-27 01:25:00,59.7,52.6,29.21,ENE,68,0.0,0.0,76,0.00,,,0.00,WSDL version 420,2013-07-27 05:25:00,
2013-07-27 01:32:00,59.5,52.0,29.21,ENE,68,0.0,0.0,76,0.00,,,0.00,WSDL version 420,2013-07-27 05:32:00,
2013-07-27 01:38:00,59.4,51.8,29.21,ENE,68,0.0,0.0,76,0.00,,,0.00,WSDL version 420,2013-07-27 05:38:00,
2013-07-27 01:44:00,59.4,52.2,29.21,ENE,68,0.0,0.0,77,-99.99,,,-99.99,WSDL version 420,2013-07-27 05:44:00,
2013-07-27 01:50:00,59.2,52.1,29.21,ENE,68,0.0,0.0,78,-99.99,,,-99.99,WSDL version 420,2013-07-27 05:50:00,
2013-07-27 01:56:00,59.2,52.3,29.21,ENE,68,0.0,0.0,78,-99.99,,,-99.99,WSDL version 420,2013-07-27 05:56:00,
2013-07-27 02:02:00,59.0,52.0,29.21,ENE,68,0.0,0.0,78,0.00,,,0.00,WSDL version 420,2013-07-27 06:02:00,
2013-07-27 02:08:00,59.0,52.1,29.21,ENE,68,0.0,0.0,78,0.00,,,0.00,WSDL version 420,2013-07-27 06:08:00,
2013-07-27 02:14:00,58.8,52.1,29.21,ENE,68,0.0,0.0,79,0.00,,,0.00,WSDL version 420,2013-07-27 06:14:00,
2013-07-27 02:20:00,58.8,52.3,29.21,ENE,68,0.0,0.0,79,0.00,,,0.00,WSDL version 420,2013-07-27 06:20:00,
2013-07-27 02:26:00,58.6,51.9,29.21,ENE,68,0.0,0.0,78,0.00,,,0.00,WSDL version 420,2013-07-27 06:26:00,
2013-07-27 02:33:00,58.5,51.9,29.21,ENE,68,0.0,0.0,79,0.00,,,0.00,WSDL version 420,2013-07-27 06:33:00,
2013-07-27 02:39:00,58.5,52.0,29.18,ENE,68,0.0,0.0,79,0.00,,,0.00,WSDL version 420,2013-07-27 06:39:00,
2013-07-27 02:45:00,58.5,52.0,29.18,ENE,68,0.0,0.0,79,0.00,,,0.00,WSDL version 420,2013-07-27 06:45:00,
2013-07-27 02:54:00,58.3,52.1,29.21,ENE,68,0.0,0.0,80,0.00,,,0.00,WSDL version 420,2013-07-27 06:54:00,
2013-07-27 03:03:00,58.1,52.0,29.21,ENE,68,0.0,0.0,80,0.00,,,0.00,WSDL version 420,2013-07-27 07:03:00,
2013-07-27 03:09:00,58.1,52.0,29.21,ENE,68,0.0,0.0,80,0.00,,,0.00,WSDL version 420,2013-07-27 07:09:00,
2013-07-27 03:15:00,58.1,52.3,29.21,ENE,68,0.0,0.0,81,0.00,,,0.00,WSDL version 420,2013-07-27 07:15:00,
2013-07-27 03:21:00,58.0,52.3,29.21,ENE,68,0.0,0.0,81,-99.99,,,-99.99,WSDL version 420,2013-07-27 07:21:00,
2013-07-27 03:27:00,57.9,52.2,29.18,ENE,68,0.0,0.0,81,0.00,,,0.00,WSDL version 420,2013-07-27 07:27:00,
2013-07-27 03:32:00,57.9,52.2,29.18,ENE,68,0.0,0.0,81,0.00,,,0.00,WSDL version 420,2013-07-27 07:32:00,
2013-07-27 03:38:00,57.9,52.2,29.18,ENE,68,0.0,0.0,81,0.00,,,0.00,WSDL version 420,2013-07-27 07:38:00,
2013-07-27 03:44:00,57.8,52.1,29.18,ENE,68,0.0,0.0,81,0.00,,,0.00,WSDL version 420,2013-07-27 07:44:00,
2013-07-27 03:50:00,57.7,52.0,29.18,ENE,68,0.0,0.0,81,0.00,,,0.00,WSDL version 420,2013-07-27 07:50:00,
2013-07-27 03:56:00,57.7,52.0,29.15,ENE,68,0.0,0.0,81,0.00,,,0.00,WSDL version 420,2013-07-27 07:56:00,
2013-07-27 04:02:00,57.7,52.0,-100.00,ENE,68,0.0,0.0,81,0.00,,,0.00,WSDL version 420,2013-07-27 08:02:00,
2013-07-27 04:08:00,57.7,51.9,29.15,ENE,68,0.0,0.0,81,0.00,,,0.00,WSDL version 420,2013-07-27 08:08:00,
2013-07-27 04:14:00,57.7,52.2,29.15,ENE,68,0.0,0.0,82,0.00,,,0.00,WSDL version 420,2013-07-27 08:14:00,
2013-07-27 04:20:00,57.6,52.2,29.15,ENE,68,0.0,0.0,82,0.00,,,0.00,WSDL version 420,2013-07-27 08:20:00,
2013-07-27 04:28:00,57.8,52.8,29.15,SSE,161,0.0,0.0,83,0.00,,,0.00,WSDL version 420,2013-07-27 08:28:00,
2013-07-27 04:34:00,59.1,54.6,29.15,SSW,203,0.0,0.0,86,0.00,,,0.00,WSDL version 420,2013-07-27 08:34:00,
2013-07-27 04:40:00,59.5,55.5,29.18,SSW,203,0.0,0.0,87,0.00,,,0.00,WSDL version 420,2013-07-27 08:40:00,
2013-07-27 04:46:00,60.0,56.5,29.18,SW,215,0.0,0.0,89,-99.99,,,-99.99,WSDL version 420,2013-07-27 08:46:00,
2013-07-27 04:52:00,60.3,57.1,29.18,SSW,203,0.0,0.0,90,0.00,,,0.00,WSDL version 420,2013-07-27 08:52:00,
2013-07-27 04:58:00,60.5,57.5,29.15,SSW,211,0.0,0.0,90,0.00,,,0.00,WSDL version 420,2013-07-27 08:58:00,
2013-07-27 05:04:00,60.7,57.9,29.15,SW,218,0.0,0.0,91,0.00,,,0.00,WSDL version 420,2013-07-27 09:04:00,
2013-07-27 05:10:00,60.9,57.9,29.18,SW,225,0.0,0.0,90,-99.99,,,-99.99,WSDL version 420,2013-07-27 09:10:00,
2013-07-27 05:16:00,61.0,58.0,29.18,SW,221,0.0,0.0,90,0.00,,,0.00,WSDL version 420,2013-07-27 09:16:00,
2013-07-27 05:22:00,61.1,58.1,29.18,SW,214,0.0,0.0,90,0.00,,,0.00,WSDL version 420,2013-07-27 09:22:00,
2013-07-27 05:28:00,61.2,57.9,29.15,SW,225,0.0,0.0,89,0.00,,,0.00,WSDL version 420,2013-07-27 09:28:00,
2013-07-27 05:34:00,61.2,57.7,29.15,SW,225,0.0,0.0,88,0.00,,,0.00,WSDL version 420,2013-07-27 09:34:00,
2013-07-27 05:40:00,61.2,57.5,29.15,SW,225,0.0,0.0,88,0.00,,,0.00,WSDL version 420,2013-07-27 09:40:00,
2013-07-27 05:46:00,61.3,57.3,29.15,SW,225,0.0,0.0,87,0.00,,,0.00,WSDL version 420,2013-07-27 09:46:00,
2013-07-27 05:52:00,61.3,57.3,-100.00,SW,225,0.0,0.0,87,0.00,,,0.00,WSDL version 420,2013-07-27 09:52:00,
2013-07-27 05:58:00,61.3,57.2,29.15,SW,225,0.0,0.0,86,0.00,,,0.00,WSDL version 420,2013-07-27 09:58:00,
2013-07-27 06:04:00,61.3,57.0,29.15,SW,225,0.0,0.0,86,0.00,,,0.00,WSDL version 420,2013-07-27 10:04:00,
2013-07-27 06:12:00,61.3,56.6,29.15,SW,225,0.0,0.0,84,0.00,,,0.00,WSDL version 420,2013-07-27 10:12:00,
2013-07-27 06:18:00,61.4,56.3,29.15,SW,225,0.0,0.0,83,0.00,,,0.00,WSDL version 420,2013-07-27 10:18:00,
2013-07-27 06:26:00,61.7,56.6,29.15,SSW,206,0.0,0.0,83,0.00,,,0.00,WSDL version 420,2013-07-27 10:26:00,
2013-07-27 06:31:00,62.0,56.9,29.15,SSW,203,0.0,0.0,83,0.00,,,0.00,WSDL version 420,2013-07-27 10:31:00,
2013-07-27 06:37:00,62.3,56.9,29.15,SW,222,0.0,0.0,82,-99.99,,,-99.99,WSDL version 420,2013-07-27 10:37:00,
2013-07-27 06:42:00,62.5,56.9,29.15,SW,222,0.0,0.0,81,0.00,,,0.00,WSDL version 420,2013-07-27 10:42:00,
2013-07-27 06:48:00,62.6,56.7,29.15,SSW,210,0.0,0.0,81,0.00,,,0.00,WSDL version 420,2013-07-27 10:48:00,
2013-07-27 06:54:00,62.8,56.5,29.15,SSW,212,0.0,1.3,80,0.00,,,0.00,WSDL version 420,2013-07-27 10:54:00,
2013-07-27 07:00:00,62.8,56.2,29.15,SW,219,0.0,1.3,79,0.00,,,0.00,WSDL version 420,2013-07-27 11:00:00,
2013-07-27 07:06:00,63.0,56.4,29.15,SW,218,0.0,0.0,79,0.00,,,0.00,WSDL version 420,2013-07-27 11:06:00,
2013-07-27 07:12:00,63.0,56.0,29.15,SSW,203,0.0,0.0,78,0.00,,,0.00,WSDL version 420,2013-07-27 11:12:00,
2013-07-27 07:18:00,63.1,56.1,29.15,SW,219,0.0,0.0,78,0.00,,,0.00,WSDL version 420,2013-07-27 11:18:00,
2013-07-27 07:24:00,63.5,56.2,-100.00,SW,225,0.0,0.0,77,0.00,,,0.00,WSDL version 420,2013-07-27 11:24:00,
2013-07-27 07:29:00,64.0,56.7,29.15,SW,225,0.0,0.0,77,0.00,,,0.00,WSDL version 420,2013-07-27 11:29:00,
2013-07-27 07:35:00,64.8,56.7,29.15,SW,225,0.0,2.2,75,0.00,,,0.00,WSDL version 420,2013-07-27 11:35:00,
2013-07-27 07:41:00,65.1,56.9,29.15,SW,214,0.1,2.0,74,0.00,,,0.00,WSDL version 420,2013-07-27 11:41:00,
2013-07-27 07:47:00,65.4,56.4,29.15,SW,219,0.0,2.0,72,-99.99,,,-99.99,WSDL version 420,2013-07-27 11:47:00,
2013-07-27 07:53:00,65.5,56.1,29.15,SW,214,0.0,1.1,71,0.00,,,0.00,WSDL version 420,2013-07-27 11:53:00,
2013-07-27 08:00:00,65.7,56.0,29.15,SSW,212,0.0,0.0,71,-99.99,,,-99.99,WSDL version 420,2013-07-27 12:00:00,
2013-07-27 08:06:00,65.8,56.2,29.15,SSW,203,0.0,0.0,71,-99.99,,,-99.99,WSDL version 420,2013-07-27 12:06:00,
2013-07-27 08:12:00,65.9,56.3,29.18,SW,219,0.0,0.0,71,0.00,,,0.00,WSDL version 420,2013-07-27 12:12:00,
2013-07-27 08:18:00,66.0,56.1,29.18,SW,225,0.0,0.0,70,0.00,,,0.00,WSDL version 420,2013-07-27 12:18:00,
2013-07-27 08:23:00,66.3,55.9,29.18,SW,225,0.0,0.0,69,0.00,,,0.00,WSDL version 420,2013-07-27 12:23:00,
2013-07-27 08:29:00,66.6,56.1,29.18,SSW,203,0.0,0.0,69,0.00,,,0.00,WSDL version 420,2013-07-27 12:29:00,
2013-07-27 08:35:00,66.7,56.1,29.18,SSW,203,0.0,0.0,68,0.00,,,0.00,WSDL version 420,2013-07-27 12:35:00,
2013-07-27 08:46:00,66.9,56.0,29.18,SW,225,0.0,0.0,68,-99.99,,,-99.99,WSDL version 420,2013-07-27 12:46:00,
2013-07-27 08:52:00,67.5,56.6,29.18,SW,214,0.0,0.0,68,0.00,,,0.00,WSDL version 420,2013-07-27 12:52:00,
2013-07-27 08:58:00,68.3,57.1,29.15,SSW,203,0.0,0.0,67,0.00,,,0.00,WSDL version 420,2013-07-27 12:58:00,
2013-07-27 09:04:00,68.5,56.8,29.15,SW,225,0.0,0.0,66,0.00,,,0.00,WSDL version 420,2013-07-27 13:04:00,
2013-07-27 09:10:00,68.5,56.1,29.18,SSW,203,0.0,0.0,64,0.00,,,0.00,WSDL version 420,2013-07-27 13:10:00,
2013-07-27 09:14:00,68.4,55.7,29.18,SSW,203,0.0,0.0,64,0.00,,,0.00,WSDL version 420,2013-07-27 13:14:00,
2013-07-27 09:20:00,68.6,55.3,29.18,SSW,203,0.0,0.0,62,0.00,,,0.00,WSDL version 420,2013-07-27 13:20:00,
2013-07-27 09:25:00,68.8,55.5,29.15,SSW,203,0.0,0.0,62,0.00,,,0.00,WSDL version 420,2013-07-27 13:25:00,
2013-07-27 09:31:00,69.3,55.7,29.15,SSW,203,0.0,0.0,62,0.00,,,0.00,WSDL version 420,2013-07-27 13:31:00,
2013-07-27 09:37:00,69.9,56.3,29.15,SW,225,0.0,0.0,62,-99.99,,,-99.99,WSDL version 420,2013-07-27 13:37:00,
2013-07-27 09:44:00,70.6,56.5,29.15,SSW,203,0.0,0.0,61,-99.99,,,-99.99,WSDL version 420,2013-07-27 13:44:00,
2013-07-27 09:50:00,71.1,56.6,-100.00,SW,225,0.0,0.0,60,0.00,,,0.00,WSDL version 420,2013-07-27 13:50:00,
2013-07-27 09:59:00,72.1,57.0,29.15,SW,225,0.0,0.0,59,0.00,,,0.00,WSDL version 420,2013-07-27 13:59:00,
2013-07-27 10:05:00,73.1,56.9,29.15,SW,219,0.0,0.0,55,0.00,,,0.00,WSDL version 420,2013-07-27 14:05:00,
2013-07-27 10:10:00,73.8,55.6,29.15,SSW,207,0.0,0.0,52,0.00,,,0.00,WSDL version 420,2013-07-27 14:10:00,
2013-07-27 10:19:00,76.3,56.8,29.15,SSW,195,0.0,0.0,51,0.00,,,0.00,WSDL version 420,2013-07-27 14:19:00,
2013-07-27 10:25:00,76.8,56.2,29.15,SSW,203,0.0,0.0,47,-99.99,,,-99.99,WSDL version 420,2013-07-27 14:25:00,
2013-07-27 10:31:00,76.8,56.0,29.15,South,180,0.0,0.0,49,-99.99,,,-99.99,WSDL version 420,2013-07-27 14:31:00,
2013-07-27 10:39:00,77.3,56.1,-100.00,South,180,0.0,0.0,48,0.00,,,0.00,WSDL version 420,2013-07-27 14:39:00,
2013-07-27 10:45:00,77.6,56.1,29.12,SSW,203,0.0,0.0,48,0.00,,,0.00,WSDL version 420,2013-07-27 14:45:00,
2013-07-27 10:52:00,78.8,56.3,29.12,SW,214,0.0,0.0,46,0.00,,,0.00,WSDL version 420,2013-07-27 14:52:00,
2013-07-27 10:58:00,79.9,56.5,29.12,SSW,203,0.0,0.0,45,0.00,,,0.00,WSDL version 420,2013-07-27 14:58:00,
2013-07-27 11:04:00,80.7,56.6,29.12,SW,214,0.0,0.0,44,-99.99,,,-99.99,WSDL version 420,2013-07-27 15:04:00,
2013-07-27 11:09:00,81.1,56.5,29.15,SW,218,0.0,0.0,43,0.00,,,0.00,WSDL version 420,2013-07-27 15:09:00,
2013-07-27 11:18:00,82.0,56.7,29.15,SW,231,0.0,0.0,42,0.00,,,0.00,WSDL version 420,2013-07-27 15:18:00,
2013-07-27 11:24:00,82.0,56.0,29.15,SW,236,0.0,0.0,41,0.00,,,0.00,WSDL version 420,2013-07-27 15:24:00,
2013-07-27 11:29:00,81.4,55.7,29.15,SSW,212,0.0,0.0,42,0.00,,,0.00,WSDL version 420,2013-07-27 15:29:00,
2013-07-27 11:35:00,82.6,57.3,29.15,SSW,203,0.0,0.0,43,0.00,,,0.00,WSDL version 420,2013-07-27 15:35:00,
2013-07-27 11:41:00,84.2,58.0,29.15,South,183,0.0,0.0,41,-99.99,,,-99.99,WSDL version 420,2013-07-27 15:41:00,
2013-07-27 11:46:00,85.1,58.4,29.15,WSW,248,0.0,0.0,40,-99.99,,,-99.99,WSDL version 420,2013-07-27 15:46:00,
2013-07-27 11:54:00,85.7,57.6,29.12,SSW,212,0.0,0.0,38,-99.99,,,-99.99,WSDL version 420,2013-07-27 15:54:00,
2013-07-27 12:00:00,85.4,57.7,29.12,SW,219,0.0,3.1,39,0.00,,,0.00,WSDL version 420,2013-07-27 16:00:00,
2013-07-27 12:06:00,84.7,57.1,29.12,SW,214,0.0,0.0,39,0.00,,,0.00,WSDL version 420,2013-07-27 16:06:00,
2013-07-27 12:12:00,84.5,56.8,29.15,SW,215,0.0,0.0,39,0.00,,,0.00,WSDL version 420,2013-07-27 16:12:00,
2013-07-27 12:18:00,85.2,57.4,29.15,SW,235,0.0,0.0,38,0.00,,,0.00,WSDL version 420,2013-07-27 16:18:00,
2013-07-27 12:24:00,84.7,56.3,29.15,SW,231,0.0,3.1,37,0.00,,,0.00,WSDL version 420,2013-07-27 16:24:00,
2013-07-27 12:30:00,83.5,55.8,29.15,SW,229,0.0,3.8,39,0.00,,,0.00,WSDL version 420,2013-07-27 16:30:00,
2013-07-27 12:36:00,82.0,55.5,29.15,SW,230,0.0,0.0,40,-99.99,,,-99.99,WSDL version 420,2013-07-27 16:36:00,
2013-07-27 12:41:00,81.5,55.6,29.15,SW,228,0.0,0.0,41,0.00,,,0.00,WSDL version 420,2013-07-27 16:41:00,
2013-07-27 12:47:00,81.3,55.8,29.15,WSW,248,0.0,0.0,42,0.00,,,0.00,WSDL version 420,2013-07-27 16:47:00,
2013-07-27 12:55:00,81.6,56.3,29.12,SW,225,0.0,0.0,42,-99.99,,,-99.99,WSDL version 420,2013-07-27 16:55:00,
2013-07-27 13:05:00,81.9,57.8,29.12,SW,222,0.0,0.0,44,0.00,,,0.00,WSDL version 420,2013-07-27 17:05:00,
2013-07-27 13:11:00,82.2,57.5,29.15,SSW,203,0.0,0.0,43,0.00,,,0.00,WSDL version 420,2013-07-27 17:11:00,
2013-07-27 13:17:00,82.4,57.7,29.15,WSW,251,0.0,0.0,43,0.00,,,0.00,WSDL version 420,2013-07-27 17:17:00,
2013-07-27 13:22:00,83.8,59.6,29.15,South,177,0.0,0.0,45,0.00,,,0.00,WSDL version 420,2013-07-27 17:22:00,
2013-07-27 13:28:00,84.4,59.0,29.12,SSW,205,0.0,0.0,42,0.00,,,0.00,WSDL version 420,2013-07-27 17:28:00,
2013-07-27 13:34:00,84.6,58.5,29.12,SW,218,0.0,0.0,42,0.00,,,0.00,WSDL version 420,2013-07-27 17:34:00,
2013-07-27 13:40:00,84.0,57.8,29.12,SSW,205,0.0,0.0,41,-99.99,,,-99.99,WSDL version 420,2013-07-27 17:40:00,
2013-07-27 13:46:00,83.3,57.2,29.12,SW,219,0.0,0.0,41,0.00,,,0.00,WSDL version 420,2013-07-27 17:46:00,
2013-07-27 13:52:00,82.9,56.8,29.12,SW,218,0.0,0.0,41,0.00,,,0.00,WSDL version 420,2013-07-27 17:52:00,
2013-07-27 13:58:00,83.0,57.3,29.12,SSW,203,0.0,0.0,42,0.00,,,0.00,WSDL version 420,2013-07-27 17:58:00,
2013-07-27 14:04:00,83.7,58.3,29.12,SW,221,0.0,0.0,42,0.00,,,0.00,WSDL version 420,2013-07-27 18:04:00,
2013-07-27 14:13:00,83.9,57.7,29.12,SSW,203,0.0,0.0,41,0.00,,,0.00,WSDL version 420,2013-07-27 18:13:00,
2013-07-27 14:19:00,83.5,58.0,29.12,SW,229,0.0,0.0,42,0.00,,,0.00,WSDL version 420,2013-07-27 18:19:00,
2013-07-27 14:24:00,83.0,56.9,29.12,South,180,0.0,0.0,41,0.00,,,0.00,WSDL version 420,2013-07-27 18:24:00,
2013-07-27 14:30:00,83.0,57.4,29.12,SSW,209,0.0,0.0,42,0.00,,,0.00,WSDL version 420,2013-07-27 18:30:00,
2013-07-27 14:36:00,82.9,57.5,29.12,SW,225,0.0,0.0,42,0.00,,,0.00,WSDL version 420,2013-07-27 18:36:00,
2013-07-27 14:42:00,82.3,56.8,29.12,SW,221,0.0,0.0,42,0.00,,,0.00,WSDL version 420,2013-07-27 18:42:00,
2013-07-27 14:48:00,82.4,57.0,29.12,SSW,203,0.0,0.0,42,0.00,,,0.00,WSDL version 420,2013-07-27 18:48:00,
2013-07-27 14:54:00,82.8,56.9,29.12,SW,219,0.0,0.0,41,0.00,,,0.00,WSDL version 420,2013-07-27 18:54:00,
2013-07-27 15:00:00,82.4,55.7,29.12,South,188,0.0,0.0,40,0.00,,,0.00,WSDL version 420,2013-07-27 19:00:00,
2013-07-27 15:06:00,82.9,56.2,29.12,SW,217,0.0,0.0,40,0.00,,,0.00,WSDL version 420,2013-07-27 19:06:00,
2013-07-27 15:12:00,83.1,56.6,29.09,SW,222,0.0,0.0,41,0.00,,,0.00,WSDL version 420,2013-07-27 19:12:00,
2013-07-27 15:18:00,82.9,56.1,-100.00,SW,216,0.0,0.0,40,0.00,,,0.00,WSDL version 420,2013-07-27 19:18:00,
2013-07-27 15:25:00,82.8,56.7,29.09,SW,230,0.0,0.0,41,-99.99,,,-99.99,WSDL version 420,2013-07-27 19:25:00,
2013-07-27 15:30:00,82.8,56.7,29.09,SW,225,0.0,0.0,41,0.00,,,0.00,WSDL version 420,2013-07-27 19:30:00,
2013-07-27 15:40:00,81.3,55.4,29.12,SW,225,0.0,0.0,41,0.00,,,0.00,WSDL version 420,2013-07-27 19:40:00,
2013-07-27 15:45:00,81.0,55.3,-100.00,SW,225,0.0,0.0,41,-99.99,,,-99.99,WSDL version 420,2013-07-27 19:45:00,
2013-07-27 15:51:00,79.8,55.3,29.12,SSW,199,0.0,0.0,43,0.00,,,0.00,WSDL version 420,2013-07-27 19:51:00,
2013-07-27 15:58:00,79.0,56.5,29.12,WSW,248,0.0,0.0,46,-99.99,,,-99.99,WSDL version 420,2013-07-27 19:58:00,
2013-07-27 16:04:00,78.7,56.2,29.12,SW,221,0.0,0.0,46,0.00,,,0.00,WSDL version 420,2013-07-27 20:04:00,
2013-07-27 16:10:00,78.3,56.8,29.09,SW,218,0.0,0.0,48,0.00,,,0.00,WSDL version 420,2013-07-27 20:10:00,
2013-07-27 16:16:00,78.0,57.5,29.09,WSW,248,0.0,0.0,51,0.00,,,0.00,WSDL version 420,2013-07-27 20:16:00,
2013-07-27 16:22:00,77.5,58.8,29.09,WSW,248,0.0,0.0,53,-99.99,,,-99.99,WSDL version 420,2013-07-27 20:22:00,
2013-07-27 16:28:00,77.0,59.4,29.12,WSW,248,0.0,0.0,55,0.00,,,0.00,WSDL version 420,2013-07-27 20:28:00,
2013-07-27 16:34:00,76.5,60.5,29.12,SSW,212,0.0,0.0,58,0.00,,,0.00,WSDL version 420,2013-07-27 20:34:00,
2013-07-27 16:40:00,76.3,61.1,29.09,SW,225,0.0,0.0,60,-99.99,,,-99.99,WSDL version 420,2013-07-27 20:40:00,
2013-07-27 16:46:00,76.3,61.7,29.09,SSW,205,0.0,0.0,61,0.00,,,0.00,WSDL version 420,2013-07-27 20:46:00,
2013-07-27 16:53:00,76.1,62.1,29.09,SSW,212,0.0,0.0,62,-99.99,,,-99.99,WSDL version 420,2013-07-27 20:53:00,
2013-07-27 16:59:00,76.0,62.3,29.09,SW,215,0.0,0.0,63,-99.99,,,-99.99,WSDL version 420,2013-07-27 20:59:00,
2013-07-27 17:05:00,75.7,61.8,29.09,South,176,0.0,0.0,62,-99.99,,,-99.99,WSDL version 420,2013-07-27 21:05:00,
2013-07-27 17:11:00,75.6,61.6,29.09,SSW,203,0.0,0.0,61,0.00,,,0.00,WSDL version 420,2013-07-27 21:11:00,
2013-07-27 17:16:00,75.4,61.0,29.09,SSW,203,0.0,0.0,61,0.00,,,0.00,WSDL version 420,2013-07-27 21:16:00,
2013-07-27 17:22:00,75.3,60.9,29.09,SW,215,0.0,0.0,61,0.00,,,0.00,WSDL version 420,2013-07-27 21:22:00,
2013-07-27 17:28:00,75.1,61.0,29.12,SW,225,0.0,0.0,62,0.00,,,0.00,WSDL version 420,2013-07-27 21:28:00,
2013-07-27 17:34:00,75.0,61.1,29.12,SSW,203,0.0,0.0,62,0.00,,,0.00,WSDL version 420,2013-07-27 21:34:00,
2013-07-27 17:40:00,74.7,61.2,29.09,SSW,208,0.0,0.0,63,0.00,,,0.00,WSDL version 420,2013-07-27 21:40:00,
2013-07-27 17:47:00,74.2,61.0,-100.00,SW,225,0.0,0.0,64,0.00,,,0.00,WSDL version 420,2013-07-27 21:47:00,
2013-07-27 17:55:00,74.0,61.3,29.09,SW,225,0.0,0.0,65,0.00,,,0.00,WSDL version 420,2013-07-27 21:55:00,
2013-07-27 18:01:00,73.8,61.6,29.09,SW,225,0.0,0.0,66,0.00,,,0.00,WSDL version 420,2013-07-27 22:01:00,
2013-07-27 18:07:00,73.6,61.5,29.09,SSW,203,0.0,0.0,66,0.00,,,0.00,WSDL version 420,2013-07-27 22:07:00,
2013-07-27 18:12:00,73.5,61.8,29.09,SW,225,0.0,0.0,67,0.00,,,0.00,WSDL version 420,2013-07-27 22:12:00,
2013-07-27 18:18:00,73.3,62.1,29.09,SSW,203,0.0,0.0,68,0.00,,,0.00,WSDL version 420,2013-07-27 22:18:00,
2013-07-27 18:24:00,73.1,62.3,29.09,SSW,203,0.0,0.0,69,0.00,,,0.00,WSDL version 420,2013-07-27 22:24:00,
2013-07-27 18:30:00,72.9,62.5,29.09,SSW,203,0.0,0.0,70,0.00,,,0.00,WSDL version 420,2013-07-27 22:30:00,
2013-07-27 18:36:00,72.6,62.8,29.09,SSW,203,0.0,0.0,72,0.00,,,0.00,WSDL version 420,2013-07-27 22:36:00,
2013-07-27 18:42:00,72.2,62.7,29.06,SSW,203,0.0,0.0,72,0.00,,,0.00,WSDL version 420,2013-07-27 22:42:00,
2013-07-27 18:48:00,72.0,63.2,29.06,SSW,203,0.0,0.0,74,0.00,,,0.00,WSDL version 420,2013-07-27 22:48:00,
2013-07-27 18:54:00,71.8,63.8,29.06,SW,225,0.0,0.0,76,0.05,,,0.05,WSDL version 420,2013-07-27 22:54:00,
2013-07-27 19:00:00,71.5,63.8,29.09,SW,225,0.0,0.0,76,-99.99,,,-99.99,WSDL version 420,2013-07-27 23:00:00,
2013-07-27 19:06:00,71.3,64.0,29.09,SW,225,0.0,0.0,78,0.05,,,0.05,WSDL version 420,2013-07-27 23:06:00,
2013-07-27 19:23:00,70.7,64.2,29.12,SW,225,0.0,0.0,80,-99.99,,,-99.99,WSDL version 420,2013-07-27 23:23:00,
2013-07-27 19:28:00,70.5,64.3,29.09,SW,225,0.0,0.0,81,0.09,,,0.09,WSDL version 420,2013-07-27 23:28:00,
2013-07-27 19:35:00,70.3,64.3,29.09,SW,225,0.0,0.0,81,0.13,,,0.13,WSDL version 420,2013-07-27 23:35:00,
2013-07-27 19:42:00,70.3,65.1,29.09,SW,225,0.0,0.0,83,0.13,,,0.13,WSDL version 420,2013-07-27 23:42:00,
2013-07-27 19:48:00,70.3,65.0,-100.00,SW,225,0.0,0.0,83,0.13,,,0.13,WSDL version 420,2013-07-27 23:48:00,
2013-07-27 19:56:00,70.0,64.7,29.09,SW,225,0.0,0.0,83,0.08,,,0.13,WSDL version 420,2013-07-27 23:56:00,
2013-07-27 20:03:00,69.8,64.5,-100.00,SW,225,0.0,0.0,83,0.08,,,0.13,WSDL version 420,2013-07-28 00:03:00,
2013-07-27 20:08:00,69.8,64.6,29.09,SW,225,0.0,0.0,84,0.08,,,0.13,WSDL version 420,2013-07-28 00:08:00,
2013-07-27 20:14:00,69.8,65.0,29.09,SW,225,0.0,0.0,86,0.08,,,0.13,WSDL version 420,2013-07-28 00:14:00,
2013-07-27 20:20:00,69.8,65.3,29.09,SW,225,0.0,0.0,86,-99.99,,,-99.99,WSDL version 420,2013-07-28 00:20:00,
2013-07-27 20:28:00,69.8,65.6,29.09,SW,225,0.0,0.0,87,0.04,,,0.13,WSDL version 420,2013-07-28 00:28:00,
2013-07-27 20:35:00,69.7,65.5,29.09,SW,225,0.0,0.0,87,0.00,,,0.13,WSDL version 420,2013-07-28 00:35:00,
2013-07-27 20:42:00,69.6,65.5,29.09,SW,225,0.0,0.0,87,0.00,,,0.13,WSDL version 420,2013-07-28 00:42:00,
2013-07-27 20:48:00,69.6,65.8,29.09,SW,225,0.0,0.0,88,0.00,,,0.13,WSDL version 420,2013-07-28 00:48:00,
2013-07-27 20:54:00,69.6,65.8,29.09,SW,225,0.0,0.0,88,0.00,,,0.13,WSDL version 420,2013-07-28 00:54:00,
2013-07-27 21:00:00,69.6,65.9,29.09,SW,225,0.0,0.0,89,0.00,,,0.13,WSDL version 420,2013-07-28 01:00:00,
2013-07-27 21:08:00,69.6,66.1,29.09,SW,225,0.0,0.0,89,0.00,,,0.13,WSDL version 420,2013-07-28 01:08:00,
2013-07-27 21:14:00,69.6,66.2,29.06,SW,225,0.0,0.0,89,-99.99,,,-99.99,WSDL version 420,2013-07-28 01:14:00,
2013-07-27 21:20:00,69.6,66.2,29.06,SW,225,0.0,0.0,89,-99.99,,,-99.99,WSDL version 420,2013-07-28 01:20:00,
2013-07-27 21:26:00,69.6,66.6,29.06,SW,225,0.0,0.0,90,0.00,,,0.13,WSDL version 420,2013-07-28 01:26:00,
2013-07-27 21:32:00,69.6,66.6,-100.00,SW,225,0.0,0.0,90,-99.99,,,-99.99,WSDL version 420,2013-07-28 01:32:00,
2013-07-27 21:38:00,69.6,66.6,29.06,SW,225,0.0,0.0,90,0.00,,,0.13,WSDL version 420,2013-07-28 01:38:00,
2013-07-27 21:44:00,69.6,66.6,29.06,SW,225,0.0,0.0,90,0.00,,,0.13,WSDL version 420,2013-07-28 01:44:00,
2013-07-27 21:51:00,69.6,66.5,29.06,SW,225,0.0,0.0,90,0.00,,,0.13,WSDL version 420,2013-07-28 01:51:00,
2013-07-27 21:57:00,69.5,66.4,29.06,SW,225,0.0,0.0,90,0.00,,,0.13,WSDL version 420,2013-07-28 01:57:00,
2013-07-27 22:03:00,69.4,66.4,29.06,SW,225,0.0,0.0,90,-99.99,,,-99.99,WSDL version 420,2013-07-28 02:03:00,
2013-07-27 22:09:00,69.3,66.2,29.09,SW,221,0.0,0.0,90,0.04,,,0.17,WSDL version 420,2013-07-28 02:09:00,
2013-07-27 22:15:00,69.3,66.2,29.09,SSW,203,0.0,0.0,90,0.04,,,0.17,WSDL version 420,2013-07-28 02:15:00,
2013-07-27 22:21:00,69.1,66.0,29.09,SSW,203,0.0,0.0,90,-99.99,,,-99.99,WSDL version 420,2013-07-28 02:21:00,
2013-07-27 22:27:00,69.0,65.9,29.09,SW,225,0.0,0.0,90,0.04,,,0.17,WSDL version 420,2013-07-28 02:27:00,
2013-07-27 22:33:00,68.9,65.8,29.09,SSW,203,0.0,0.0,90,0.04,,,0.17,WSDL version 420,2013-07-28 02:33:00,
2013-07-27 22:39:00,68.7,65.7,29.09,South,174,0.0,0.0,90,0.04,,,0.17,WSDL version 420,2013-07-28 02:39:00,
2013-07-27 22:46:00,68.7,65.7,29.09,South,185,0.0,0.0,90,-99.99,,,-99.99,WSDL version 420,2013-07-28 02:46:00,
2013-07-27 22:52:00,68.6,65.9,29.09,SSW,212,0.0,0.0,91,0.04,,,0.17,WSDL version 420,2013-07-28 02:52:00,
2013-07-27 22:57:00,68.5,65.8,29.09,SSW,203,0.0,0.0,91,0.04,,,0.17,WSDL version 420,2013-07-28 02:57:00,
2013-07-27 23:03:00,68.5,65.8,29.09,SSW,212,0.0,0.0,91,-99.99,,,-99.99,WSDL version 420,2013-07-28 03:03:00,
2013-07-27 23:09:00,68.5,65.8,29.09,WSW,245,0.0,0.0,91,0.00,,,0.17,WSDL version 420,2013-07-28 03:09:00,
2013-07-27 23:15:00,68.4,65.7,29.09,SSW,203,0.0,0.0,91,0.00,,,0.17,WSDL version 420,2013-07-28 03:15:00,
2013-07-27 23:21:00,68.4,65.7,29.09,SW,230,0.0,0.0,91,0.00,,,0.17,WSDL version 420,2013-07-28 03:21:00,
2013-07-27 23:27:00,68.3,65.6,29.09,SW,225,0.0,0.0,91,-99.99,,,-99.99,WSDL version 420,2013-07-28 03:27:00,
2013-07-27 23:32:00,68.2,65.5,29.09,SW,225,0.0,0.0,91,0.00,,,0.17,WSDL version 420,2013-07-28 03:32:00,
2013-07-27 23:44:00,68.0,65.3,29.09,SW,225,0.0,0.0,91,-99.99,,,-99.99,WSDL version 420,2013-07-28 03:44:00,
2013-07-27 23:50:00,68.0,65.3,29.09,SW,225,0.0,0.0,91,-99.99,,,-99.99,WSDL version 420,2013-07-28 03:50:00,
2013-07-27 23:55:00,68.0,65.3,29.09,SW,225,0.0,0.0,91,0.00,,,0.17,WSDL version 420,2013-07-28 03:55:00,